Time;durP1;ratioP1;P1;durP2;ratioP2;P2;SDS_P1;SDS_P2;PMS_P1;PMS_P2;Temp;Humidity;BMP_temperature;BMP_pressure;BME280_temperature;BME280_humidity;BME280_pressure;Samples;Min_cycle;Max_cycle;Signal;HPM_P1;HPM_P2
2022/01/15 00:00:42;;;;;;;29.92;9.35;;;6.40;99.90;;;;;;5075808;28;20040;-78
2022/01/15 00:03:10;;;;;;;43.58;10.80;;;6.40;99.90;;;;;;5109894;28;20047;-80
2022/01/15 00:05:36;;;;;;;46.47;9.77;;;6.40;99.90;;;;;;5075845;28;20047;-80
2022/01/15 00:08:03;;;;;;;35.10;9.23;;;6.30;99.90;;;;;;5075647;28;20105;-80
2022/01/15 00:10:30;;;;;;;59.75;11.02;;;6.30;99.90;;;;;;5091437;28;20040;-80
2022/01/15 00:13:01;;;;;;;41.03;10.20;;;6.30;99.90;;;;;;5074674;28;20047;-82
2022/01/15 00:15:38;;;;;;;136.52;15.75;;;6.30;99.90;;;;;;5074492;28;20048;-80
2022/01/15 00:18:12;;;;;;;67.22;11.07;;;6.40;99.90;;;;;;5075600;28;20071;-80
2022/01/15 00:20:39;;;;;;;120.05;16.77;;;6.30;99.90;;;;;;5075695;28;20117;-80
2022/01/15 00:23:05;;;;;;;166.65;21.80;;;6.30;99.90;;;;;;5074507;28;20472;-79
2022/01/15 00:25:32;;;;;;;97.65;16.08;;;6.30;99.90;;;;;;5091095;28;20040;-79
2022/01/15 00:27:59;;;;;;;77.13;13.20;;;6.30;99.90;;;;;;5074073;28;20051;-81
2022/01/15 00:30:25;;;;;;;55.00;12.25;;;6.30;99.90;;;;;;5107981;28;20369;-80
2022/01/15 00:32:52;;;;;;;44.30;10.80;;;6.30;99.90;;;;;;5075310;28;20476;-81
2022/01/15 00:35:19;;;;;;;92.63;14.25;;;6.30;99.90;;;;;;5094446;28;20147;-80
2022/01/15 00:37:46;;;;;;;57.88;9.90;;;6.30;99.90;;;;;;5114768;28;20524;-79
2022/01/15 00:40:18;;;;;;;38.30;8.48;;;6.30;99.90;;;;;;5115169;28;20199;-81
2022/01/15 00:42:45;;;;;;;29.20;7.78;;;6.20;99.90;;;;;;5098350;28;20138;-81
2022/01/15 00:45:17;;;;;;;31.27;8.02;;;6.20;99.90;;;;;;5115066;28;20051;-80
2022/01/15 00:47:44;;;;;;;28.95;9.85;;;6.20;99.90;;;;;;5098017;28;20042;-81
2022/01/15 00:50:10;;;;;;;22.20;7.47;;;6.20;99.90;;;;;;5097980;28;20047;-79
2022/01/15 00:52:37;;;;;;;47.38;9.35;;;6.20;99.90;;;;;;5115231;28;20479;-79
2022/01/15 00:55:04;;;;;;;22.33;7.53;;;6.20;99.90;;;;;;5097942;28;20062;-81
2022/01/15 00:57:30;;;;;;;14.05;6.18;;;6.20;99.90;;;;;;5098079;28;20059;-80
2022/01/15 00:59:56;;;;;;;26.88;8.82;;;6.20;99.90;;;;;;5114741;28;20040;-79
2022/01/15 01:02:22;;;;;;;41.88;9.93;;;6.20;99.90;;;;;;5115369;28;20044;-80
2022/01/15 01:04:48;;;;;;;22.83;8.27;;;6.20;99.90;;;;;;5097961;28;20089;-78
2022/01/15 01:07:13;;;;;;;28.75;8.35;;;6.20;99.90;;;;;;5097942;28;20453;-80
2022/01/15 01:12:24;;;;;;;19.52;7.13;;;6.20;99.90;;;;;;5114693;28;20047;-81
2022/01/15 01:20:27;;;;;;;11.05;5.68;;;6.20;99.90;;;;;;5114323;28;20104;-80
2022/01/15 01:22:56;;;;;;;23.75;8.07;;;6.20;99.90;;;;;;5114424;28;20051;-80
2022/01/15 01:25:24;;;;;;;21.30;7.68;;;6.20;99.90;;;;;;5114556;28;20040;-79
2022/01/15 01:27:53;;;;;;;13.13;5.70;;;6.20;99.90;;;;;;5097461;28;20047;-80
2022/01/15 01:30:25;;;;;;;7.70;4.07;;;6.20;99.90;;;;;;5097488;28;20089;-81
2022/01/15 01:38:59;;;;;;;10.75;4.78;;;6.20;99.90;;;;;;5107771;28;20385;-82
2022/01/15 01:41:22;;;;;;;14.25;5.45;;;6.20;99.90;;;;;;5112979;28;20134;-80
2022/01/15 01:43:54;;;;;;;10.77;5.35;;;6.20;99.90;;;;;;5113911;28;20048;-80
2022/01/15 01:48:50;;;;;;;;;;;6.20;99.90;;;;;;5114483;28;20043;-80
2022/01/15 01:51:39;;;;;;;19.95;6.55;;;6.20;99.90;;;;;;5097080;28;19977;-79
2022/01/15 01:54:11;;;;;;;14.90;6.40;;;6.20;99.90;;;;;;5096954;28;20535;-81
2022/01/15 01:56:37;;;;;;;18.05;7.10;;;6.20;99.90;;;;;;5096905;28;20050;-81
2022/01/15 01:59:05;;;;;;;18.13;6.65;;;6.20;99.90;;;;;;5096975;28;20593;-78
2022/01/15 02:01:30;;;;;;;18.90;7.25;;;6.20;99.90;;;;;;5096497;28;20481;-80
2022/01/15 02:03:56;;;;;;;19.05;7.93;;;6.10;99.90;;;;;;5113612;28;20051;-82
2022/01/15 02:06:22;;;;;;;26.67;8.60;;;6.10;99.90;;;;;;5096668;28;20055;-80
2022/01/15 02:08:50;;;;;;;23.95;8.18;;;6.20;99.90;;;;;;5096588;28;20361;-80
2022/01/15 02:11:16;;;;;;;17.02;5.78;;;6.20;99.90;;;;;;5096445;28;20047;-79
2022/01/15 02:13:45;;;;;;;13.95;5.85;;;6.20;99.90;;;;;;5096549;28;20130;-79
2022/01/15 02:16:13;;;;;;;14.68;6.13;;;6.10;99.90;;;;;;5096288;28;20073;-80
2022/01/15 02:18:38;;;;;;;21.95;6.88;;;6.10;99.90;;;;;;5096510;28;20044;-82
2022/01/15 02:23:41;;;;;;;13.52;5.78;;;6.20;99.90;;;;;;5113222;28;20097;-80
2022/01/15 02:26:09;;;;;;;16.00;6.22;;;6.20;99.90;;;;;;5113394;28;20080;-79
2022/01/15 02:28:38;;;;;;;49.95;7.88;;;6.10;99.90;;;;;;5113063;28;20552;-81
2022/01/15 02:31:13;;;;;;;11.77;5.10;;;6.10;99.90;;;;;;5096166;28;20077;-81
2022/01/15 02:33:40;;;;;;;27.45;6.13;;;6.20;99.90;;;;;;5096094;28;20138;-79
2022/01/15 02:36:09;;;;;;;15.43;5.40;;;6.20;99.90;;;;;;5095990;28;20043;-79
2022/01/15 02:38:36;;;;;;;9.30;4.20;;;6.10;99.90;;;;;;5130301;27;20121;-81
2022/01/15 02:41:03;;;;;;;7.70;3.25;;;6.10;99.90;;;;;;5097044;28;20104;-79
2022/01/15 02:43:32;;;;;;;10.88;3.95;;;6.10;99.90;;;;;;5095858;28;20063;-80
2022/01/15 02:46:08;;;;;;;7.88;3.70;;;6.10;99.90;;;;;;5112916;28;20047;-81
2022/01/15 02:48:36;;;;;;;12.48;4.72;;;6.10;99.90;;;;;;5112649;28;20048;-80
2022/01/15 02:51:02;;;;;;;12.73;4.85;;;6.10;99.90;;;;;;5112909;28;20051;-81
2022/01/15 02:53:28;;;;;;;12.80;5.05;;;6.10;99.90;;;;;;5095845;28;20051;-80
2022/01/15 02:55:54;;;;;;;13.60;5.53;;;6.10;99.90;;;;;;5095843;28;20469;-80
2022/01/15 02:58:22;;;;;;;12.65;4.93;;;6.10;99.90;;;;;;5095623;28;20047;-80
2022/01/15 03:00:50;;;;;;;25.35;5.28;;;6.10;99.90;;;;;;5095176;28;20380;-80
2022/01/15 03:03:16;;;;;;;10.20;3.88;;;6.10;99.90;;;;;;5095330;28;20460;-80
2022/01/15 03:05:41;;;;;;;9.65;3.40;;;6.10;99.90;;;;;;5095775;28;20108;-80
2022/01/15 03:08:08;;;;;;;9.75;3.08;;;6.10;99.90;;;;;;5095607;28;20070;-79
2022/01/15 03:10:34;;;;;;;9.30;2.80;;;6.10;99.90;;;;;;5095640;28;20116;-80
2022/01/15 03:13:01;;;;;;;4.38;2.13;;;6.00;99.90;;;;;;5095299;28;20532;-82
2022/01/15 03:15:28;;;;;;;4.15;2.20;;;6.00;99.90;;;;;;5095454;28;20048;-81
2022/01/15 03:17:54;;;;;;;3.67;2.20;;;6.00;99.90;;;;;;5111627;28;20059;-79
2022/01/15 03:20:20;;;;;;;4.82;2.35;;;6.00;99.90;;;;;;5095243;28;20365;-80
2022/01/15 03:22:47;;;;;;;6.53;2.53;;;6.00;99.90;;;;;;5112121;28;20048;-80
2022/01/15 03:25:13;;;;;;;4.57;2.20;;;6.00;99.90;;;;;;5095286;28;20038;-79
2022/01/15 03:27:39;;;;;;;4.80;2.38;;;6.00;99.90;;;;;;5111943;28;20092;-80
2022/01/15 03:30:08;;;;;;;8.52;2.70;;;6.00;99.90;;;;;;5095047;28;20511;-80
2022/01/15 03:32:33;;;;;;;7.50;2.67;;;6.00;99.90;;;;;;5096017;28;20133;-79
2022/01/15 03:34:59;;;;;;;5.38;2.72;;;5.90;99.90;;;;;;5095218;28;20055;-81
2022/01/15 03:37:25;;;;;;;4.40;2.30;;;5.90;99.90;;;;;;5095007;28;20480;-80
2022/01/15 03:39:51;;;;;;;8.43;2.78;;;5.90;99.90;;;;;;5111856;28;20453;-80
2022/01/15 03:42:17;;;;;;;6.90;2.85;;;5.90;99.90;;;;;;5094794;28;20112;-79
2022/01/15 03:44:45;;;;;;;7.95;3.55;;;5.90;99.90;;;;;;5094962;28;20055;-80
2022/01/15 03:47:12;;;;;;;9.90;4.13;;;5.90;99.90;;;;;;5096201;28;20063;-80
2022/01/15 03:49:39;;;;;;;5.40;3.15;;;5.90;99.90;;;;;;5094920;28;20047;-78
2022/01/15 03:52:06;;;;;;;8.38;3.60;;;5.90;99.90;;;;;;5111584;28;20043;-80
2022/01/15 03:54:33;;;;;;;11.55;3.67;;;5.90;99.90;;;;;;5111845;28;20075;-80
2022/01/15 03:56:59;;;;;;;5.63;2.75;;;5.90;99.90;;;;;;5094510;28;20496;-80
2022/01/15 03:59:25;;;;;;;4.82;2.80;;;5.90;99.90;;;;;;5111340;28;20487;-80
2022/01/15 04:01:51;;;;;;;14.40;3.67;;;5.90;99.90;;;;;;5094823;28;20047;-81
2022/01/15 04:04:18;;;;;;;4.65;2.53;;;5.90;99.90;;;;;;5112565;28;20484;-79
2022/01/15 04:06:44;;;;;;;4.05;2.30;;;5.90;99.90;;;;;;5094848;28;20047;-80
2022/01/15 04:09:11;;;;;;;3.80;1.80;;;5.90;99.90;;;;;;5094612;28;20058;-79
2022/01/15 04:11:37;;;;;;;5.55;2.50;;;5.90;99.90;;;;;;5096129;28;20372;-80
2022/01/15 04:14:04;;;;;;;6.15;2.47;;;5.90;99.90;;;;;;5115728;28;20058;-81
2022/01/15 04:16:30;;;;;;;4.55;2.30;;;5.90;99.90;;;;;;5098811;28;20454;-79
2022/01/15 04:18:57;;;;;;;5.60;2.60;;;5.90;99.90;;;;;;5115789;28;20051;-80
2022/01/15 04:21:24;;;;;;;6.32;2.40;;;5.90;99.90;;;;;;5115493;28;20453;-80
2022/01/15 04:23:50;;;;;;;5.90;2.80;;;5.90;99.90;;;;;;5098587;28;20051;-80
2022/01/15 04:26:18;;;;;;;6.18;2.85;;;5.90;99.90;;;;;;5115584;28;20071;-80
2022/01/15 04:28:44;;;;;;;6.90;3.17;;;6.00;99.90;;;;;;5098354;28;20046;-81
2022/01/15 04:31:10;;;;;;;5.00;2.90;;;6.00;99.90;;;;;;5116616;28;20443;-81
2022/01/15 04:33:38;;;;;;;4.38;2.58;;;6.00;99.90;;;;;;5115313;28;20090;-80
2022/01/15 04:36:06;;;;;;;3.63;2.00;;;5.90;99.90;;;;;;5132664;27;20101;-79
2022/01/15 04:38:35;;;;;;;4.53;2.35;;;5.90;99.90;;;;;;5115261;28;20044;-80
2022/01/15 04:41:02;;;;;;;5.40;2.22;;;5.90;99.90;;;;;;5098141;28;20083;-81
2022/01/15 04:43:27;;;;;;;5.10;2.60;;;5.90;99.90;;;;;;5098143;28;20039;-79
2022/01/15 04:45:53;;;;;;;6.10;2.67;;;5.90;99.90;;;;;;5115582;28;20480;-80
2022/01/15 04:48:19;;;;;;;4.90;2.50;;;5.90;99.90;;;;;;5116078;28;20039;-81
2022/01/15 04:50:45;;;;;;;4.35;2.53;;;5.90;99.90;;;;;;5115077;28;20043;-81
2022/01/15 04:53:11;;;;;;;4.63;2.47;;;5.90;99.90;;;;;;5098039;28;20059;-81
2022/01/15 04:55:37;;;;;;;5.00;2.08;;;5.90;99.90;;;;;;5098087;28;20039;-80
2022/01/15 04:58:06;;;;;;;4.13;2.30;;;5.80;99.90;;;;;;5097780;28;20098;-79
2022/01/15 05:00:33;;;;;;;4.38;2.20;;;5.80;99.90;;;;;;5114730;28;20493;-80
2022/01/15 05:02:59;;;;;;;2.95;1.58;;;5.80;99.90;;;;;;5131736;27;20052;-79
2022/01/15 05:05:26;;;;;;;3.30;1.95;;;5.80;99.90;;;;;;5097791;28;20050;-80
2022/01/15 05:07:53;;;;;;;3.03;1.85;;;5.80;99.90;;;;;;5097891;28;20506;-80
2022/01/15 05:10:23;;;;;;;4.35;2.03;;;5.80;99.90;;;;;;5114627;28;20108;-80
2022/01/15 05:12:49;;;;;;;4.30;2.53;;;5.80;99.90;;;;;;5097691;28;20539;-80
2022/01/15 05:15:18;;;;;;;3.90;2.10;;;5.80;99.90;;;;;;5115296;28;20101;-80
2022/01/15 05:17:45;;;;;;;6.25;2.55;;;5.70;99.90;;;;;;5114289;28;20098;-81
2022/01/15 05:20:16;;;;;;;5.28;2.22;;;5.70;99.90;;;;;;5114423;28;20051;-79
2022/01/15 05:22:42;;;;;;;6.22;3.08;;;5.80;99.90;;;;;;5114151;28;20053;-80
2022/01/15 05:25:09;;;;;;;4.18;1.95;;;5.70;99.90;;;;;;5097344;28;20126;-81
2022/01/15 05:27:36;;;;;;;3.85;1.40;;;5.70;99.90;;;;;;5116342;28;20417;-79
2022/01/15 05:30:05;;;;;;;3.33;1.58;;;5.70;99.90;;;;;;5098765;28;20043;-81
2022/01/15 05:32:31;;;;;;;3.17;1.65;;;5.70;99.90;;;;;;5098882;28;20031;-80
2022/01/15 05:35:00;;;;;;;2.95;1.45;;;5.70;99.90;;;;;;5098933;28;20088;-81
2022/01/15 05:37:26;;;;;;;4.13;1.67;;;5.70;99.90;;;;;;5098516;28;20456;-80
2022/01/15 05:39:52;;;;;;;4.82;1.83;;;5.70;99.90;;;;;;5097337;28;20070;-80
2022/01/15 05:42:18;;;;;;;5.30;1.92;;;5.60;99.90;;;;;;5098561;28;20037;-80
2022/01/15 05:44:44;;;;;;;5.07;2.15;;;5.70;99.90;;;;;;5115476;28;20040;-79
2022/01/15 05:47:10;;;;;;;4.38;2.08;;;5.60;99.90;;;;;;5097435;28;20552;-80
2022/01/15 05:49:36;;;;;;;5.03;2.15;;;5.60;99.90;;;;;;5097272;28;20338;-79
2022/01/15 05:52:02;;;;;;;3.22;1.52;;;5.60;99.90;;;;;;5097250;28;20051;-80
2022/01/15 05:54:28;;;;;;;2.85;1.40;;;5.60;99.90;;;;;;5114220;28;20044;-80
2022/01/15 05:56:54;;;;;;;2.55;1.20;;;5.60;99.90;;;;;;5098385;28;20047;-79
2022/01/15 05:59:20;;;;;;;3.53;1.40;;;5.60;99.90;;;;;;5096794;28;20456;-81
2022/01/15 06:01:46;;;;;;;3.70;1.60;;;5.60;99.90;;;;;;5114720;28;20054;-81
2022/01/15 06:04:12;;;;;;;2.75;1.48;;;5.50;99.90;;;;;;5115262;28;20054;-80
2022/01/15 06:06:37;;;;;;;2.95;1.65;;;5.50;99.90;;;;;;5097305;28;20127;-81
2022/01/15 06:09:03;;;;;;;3.28;1.67;;;5.50;99.90;;;;;;5113973;28;20051;-81
2022/01/15 06:11:30;;;;;;;4.18;1.77;;;5.50;99.90;;;;;;5096994;28;20043;-79
2022/01/15 06:13:56;;;;;;;3.65;1.60;;;5.50;99.90;;;;;;5097712;28;20079;-80
2022/01/15 06:16:22;;;;;;;3.47;1.50;;;5.40;99.90;;;;;;5096576;28;20058;-81
2022/01/15 06:18:49;;;;;;;3.10;1.75;;;5.40;99.90;;;;;;5096636;28;20063;-80
2022/01/15 06:21:15;;;;;;;3.83;1.70;;;5.40;99.90;;;;;;5096399;28;20130;-79
2022/01/15 06:23:41;;;;;;;4.32;1.90;;;5.40;99.90;;;;;;5113602;28;20043;-79
2022/01/15 06:26:07;;;;;;;4.22;2.03;;;5.40;99.90;;;;;;5096239;28;20520;-80
2022/01/15 06:28:33;;;;;;;5.90;1.70;;;5.40;99.90;;;;;;5096602;28;20475;-81
2022/01/15 06:30:59;;;;;;;3.38;1.65;;;5.40;99.90;;;;;;5096460;28;20126;-81
2022/01/15 06:33:25;;;;;;;5.88;2.13;;;5.40;99.90;;;;;;5095841;28;20052;-79
2022/01/15 06:35:51;;;;;;;4.60;2.67;;;5.40;99.90;;;;;;5095987;28;20052;-80
2022/01/15 06:38:17;;;;;;;4.78;2.60;;;5.30;99.90;;;;;;5096214;28;20434;-80
2022/01/15 06:40:43;;;;;;;5.93;2.63;;;5.30;99.90;;;;;;5114147;28;20047;-79
2022/01/15 06:43:09;;;;;;;6.32;2.92;;;5.30;99.90;;;;;;5113352;28;20488;-80
2022/01/15 06:45:34;;;;;;;6.85;3.28;;;5.30;99.90;;;;;;5113272;28;20360;-81
2022/01/15 06:48:01;;;;;;;6.38;3.03;;;5.30;99.90;;;;;;5096191;28;20411;-80
2022/01/15 06:50:28;;;;;;;6.97;3.92;;;5.30;99.90;;;;;;5114410;28;20398;-80
2022/01/15 06:52:55;;;;;;;8.27;3.72;;;5.30;99.90;;;;;;5095998;28;20103;-79
2022/01/15 06:55:21;;;;;;;9.45;4.30;;;5.30;99.90;;;;;;5096079;28;20040;-80
2022/01/15 06:57:47;;;;;;;7.35;3.85;;;5.30;99.90;;;;;;5113821;28;20366;-80
2022/01/15 07:00:15;;;;;;;9.35;4.47;;;5.30;99.90;;;;;;5095837;28;20142;-80
2022/01/15 07:02:41;;;;;;;8.48;3.55;;;5.20;99.90;;;;;;5095996;28;20056;-79
2022/01/15 07:05:08;;;;;;;9.23;4.38;;;5.30;99.90;;;;;;5095730;28;20140;-79
2022/01/15 07:07:35;;;;;;;7.90;4.10;;;5.30;99.90;;;;;;5112883;28;20044;-79
2022/01/15 07:10:01;;;;;;;8.30;4.90;;;5.30;99.90;;;;;;5108093;28;20058;-80
2022/01/15 07:12:27;;;;;;;6.63;2.90;;;5.30;99.90;;;;;;5112473;28;20035;-81
2022/01/15 07:14:53;;;;;;;7.40;3.58;;;5.30;99.90;;;;;;5112505;28;20050;-79
2022/01/15 07:17:18;;;;;;;7.00;3.33;;;5.20;99.90;;;;;;5096772;28;20087;-82
2022/01/15 07:19:44;;;;;;;7.55;3.35;;;5.20;99.90;;;;;;5095329;28;20443;-79
2022/01/15 07:22:10;;;;;;;5.53;3.20;;;5.20;99.90;;;;;;5112515;28;20044;-80
2022/01/15 07:24:38;;;;;;;9.23;3.65;;;5.20;99.90;;;;;;5113540;28;20058;-79
2022/01/15 07:27:04;;;;;;;7.05;2.78;;;5.20;99.90;;;;;;5095633;28;20059;-79
2022/01/15 07:29:31;;;;;;;9.38;3.67;;;5.20;99.90;;;;;;5095417;28;20482;-81
2022/01/15 07:31:57;;;;;;;11.85;4.25;;;5.20;99.90;;;;;;5095410;28;20039;-79
2022/01/15 07:34:23;;;;;;;8.35;3.65;;;5.20;99.90;;;;;;5112186;28;20104;-79
2022/01/15 07:36:55;;;;;;;7.38;3.55;;;5.20;99.90;;;;;;5112326;28;20047;-81
2022/01/15 07:39:21;;;;;;;8.55;4.07;;;5.20;99.90;;;;;;5112358;28;20043;-79
2022/01/15 07:41:47;;;;;;;11.75;4.68;;;5.20;99.90;;;;;;5095010;28;20062;-80
2022/01/15 07:44:13;;;;;;;13.02;4.95;;;5.20;99.90;;;;;;5112229;28;20393;-79
2022/01/15 07:46:39;;;;;;;11.75;4.22;;;5.20;99.90;;;;;;5113005;28;20044;-78
2022/01/15 07:49:05;;;;;;;9.98;5.03;;;5.20;99.90;;;;;;5112057;28;20365;-79
2022/01/15 07:51:30;;;;;;;7.82;3.65;;;5.20;99.90;;;;;;5112062;28;20090;-79
2022/01/15 07:53:56;;;;;;;7.60;4.25;;;5.20;99.90;;;;;;5112616;28;20054;-79
2022/01/15 07:56:22;;;;;;;10.02;4.18;;;5.20;99.90;;;;;;5095984;28;20048;-80
2022/01/15 07:58:48;;;;;;;7.93;4.20;;;5.20;99.90;;;;;;5113385;28;20036;-80
2022/01/15 08:01:14;;;;;;;7.00;3.15;;;5.20;99.90;;;;;;5094537;28;20092;-81
2022/01/15 08:03:40;;;;;;;7.70;3.55;;;5.20;99.90;;;;;;5094906;28;20040;-79
2022/01/15 08:06:07;;;;;;;7.68;3.55;;;5.10;99.90;;;;;;5095908;28;20570;-79
2022/01/15 08:08:33;;;;;;;6.97;3.30;;;5.10;99.90;;;;;;5094834;28;20075;-80
2022/01/15 08:20:45;;;;;;;7.40;3.80;;;5.10;99.90;;;;;;5048264;28;20115;-73
2022/01/15 08:23:11;;;;;;;6.80;3.33;;;5.10;99.90;;;;;;5034869;28;20045;-73
2022/01/15 08:25:37;;;;;;;6.25;3.42;;;5.10;99.90;;;;;;5018219;28;20132;-73
2022/01/15 08:28:03;;;;;;;8.07;4.20;;;5.10;99.90;;;;;;5018300;28;20037;-73
2022/01/15 08:30:29;;;;;;;10.27;4.32;;;5.10;99.90;;;;;;5016699;28;20045;-73
2022/01/15 08:32:55;;;;;;;10.88;4.70;;;5.10;99.90;;;;;;5035082;28;20098;-73
2022/01/15 08:35:21;;;;;;;8.52;3.55;;;5.10;99.90;;;;;;5018637;28;20488;-72
2022/01/15 08:37:46;;;;;;;8.18;3.67;;;5.10;99.90;;;;;;5035166;28;20478;-73
2022/01/15 08:40:14;;;;;;;7.20;3.17;;;5.10;99.90;;;;;;5018660;28;20120;-74
2022/01/15 08:42:41;;;;;;;7.93;3.50;;;5.10;99.90;;;;;;5018821;28;20041;-73
2022/01/15 08:45:08;;;;;;;6.78;3.30;;;5.00;99.90;;;;;;5018350;28;20083;-73
2022/01/15 08:47:34;;;;;;;10.32;3.65;;;5.00;99.90;;;;;;5018561;28;20554;-73
2022/01/15 08:50:00;;;;;;;7.60;3.47;;;5.00;99.90;;;;;;5034684;28;20142;-73
2022/01/15 08:52:26;;;;;;;9.68;4.47;;;5.00;99.90;;;;;;5018378;28;20129;-73
2022/01/15 08:54:52;;;;;;;11.77;4.65;;;5.00;99.90;;;;;;5034677;28;20187;-73
2022/01/15 08:57:18;;;;;;;11.55;4.68;;;5.00;99.90;;;;;;5035356;28;20139;-73
2022/01/15 08:59:43;;;;;;;8.57;3.53;;;5.00;99.90;;;;;;5037964;28;20045;-72
2022/01/15 09:02:10;;;;;;;8.80;3.67;;;5.00;99.90;;;;;;5020700;28;20135;-74
2022/01/15 09:04:37;;;;;;;13.57;4.07;;;5.10;99.90;;;;;;5038376;28;20037;-73
2022/01/15 09:07:03;;;;;;;12.10;4.28;;;5.00;99.90;;;;;;5038652;28;20094;-73
2022/01/15 09:09:29;;;;;;;16.02;5.75;;;5.00;99.90;;;;;;5021834;28;20124;-73
2022/01/15 09:11:55;;;;;;;13.52;4.65;;;5.00;99.90;;;;;;5021771;28;20179;-73
2022/01/15 09:14:21;;;;;;;14.95;6.30;;;5.00;99.90;;;;;;5022101;28;20102;-72
2022/01/15 09:16:46;;;;;;;19.15;6.30;;;5.00;99.90;;;;;;5037913;28;20044;-72
2022/01/15 09:19:12;;;;;;;18.08;8.10;;;5.00;99.90;;;;;;5053207;28;20067;-72
2022/01/15 09:21:38;;;;;;;17.13;6.32;;;5.00;99.90;;;;;;5048863;28;20056;-72
2022/01/15 09:24:04;;;;;;;20.75;7.70;;;5.00;99.90;;;;;;5057681;28;20127;-72
2022/01/15 09:27:01;;;;;;;19.80;7.57;;;5.00;99.90;;;;;;5041033;28;20036;-72
2022/01/15 09:32:12;;;;;;;27.27;10.30;;;5.00;99.90;;;;;;5056344;28;20048;-73
2022/01/15 09:34:38;;;;;;;27.15;8.98;;;5.00;99.90;;;;;;5057581;28;20045;-73
2022/01/15 09:37:06;;;;;;;29.67;11.13;;;5.00;99.90;;;;;;5041094;28;20423;-73
2022/01/15 09:39:33;;;;;;;30.60;11.02;;;4.90;99.90;;;;;;5057385;28;20045;-72
2022/01/15 09:41:59;;;;;;;27.80;10.38;;;5.00;99.90;;;;;;5057321;28;20048;-72
2022/01/15 09:44:25;;;;;;;25.50;11.60;;;5.00;99.90;;;;;;5057273;28;20525;-73
2022/01/15 09:46:52;;;;;;;26.02;10.80;;;5.00;99.90;;;;;;5040672;28;20082;-72
2022/01/15 09:49:22;;;;;;;39.33;13.48;;;5.00;99.90;;;;;;5057311;28;20040;-73
2022/01/15 09:51:48;;;;;;;30.98;11.52;;;4.90;99.90;;;;;;5057176;28;20492;-73
2022/01/15 09:54:15;;;;;;;36.67;13.75;;;4.90;99.90;;;;;;5057453;28;20041;-72
2022/01/15 09:56:41;;;;;;;37.20;12.82;;;4.90;99.90;;;;;;5057330;28;20098;-72
2022/01/15 09:59:07;;;;;;;38.53;13.77;;;4.90;99.90;;;;;;5057414;28;20094;-72
2022/01/15 10:01:33;;;;;;;43.67;15.18;;;4.80;99.90;;;;;;5038272;28;20436;-73
2022/01/15 10:04:00;;;;;;;42.25;16.08;;;4.80;99.90;;;;;;5057071;28;20048;-72
2022/01/15 10:06:26;;;;;;;38.58;13.13;;;4.80;99.90;;;;;;5040485;28;20063;-73
2022/01/15 10:09:05;;;;;;;27.83;10.48;;;4.80;99.90;;;;;;5055583;28;20045;-73
2022/01/15 10:11:52;;;;;;;34.92;14.55;;;4.80;99.90;;;;;;5056876;28;20040;-72
2022/01/15 10:14:36;;;;;;;33.67;13.60;;;4.80;99.90;;;;;;5049587;28;20052;-73
2022/01/15 10:17:23;;;;;;;46.53;16.80;;;4.80;99.90;;;;;;5056930;28;20036;-73
2022/01/15 10:19:50;;;;;;;33.58;14.18;;;4.80;99.90;;;;;;5056323;28;20075;-73
2022/01/15 10:22:18;;;;;;;38.17;15.07;;;4.80;99.90;;;;;;5038885;28;20523;-72
2022/01/15 10:24:58;;;;;;;47.90;17.50;;;4.80;99.90;;;;;;5055334;28;20568;-73
2022/01/15 10:27:35;;;;;;;53.72;16.48;;;4.80;99.90;;;;;;5055556;28;20082;-73
2022/01/15 10:30:22;;;;;;;56.90;18.25;;;4.80;99.90;;;;;;5052968;28;20040;-73
2022/01/15 10:33:01;;;;;;;61.97;20.48;;;4.80;99.90;;;;;;5038814;28;20040;-72
2022/01/15 10:35:36;;;;;;;58.00;18.83;;;4.80;99.90;;;;;;5055331;28;20131;-73
2022/01/15 10:38:06;;;;;;;71.70;21.27;;;4.80;99.90;;;;;;5055229;28;20044;-73
2022/01/15 10:40:44;;;;;;;51.50;17.25;;;4.80;99.90;;;;;;5038563;28;20047;-72
2022/01/15 10:43:13;;;;;;;66.60;21.25;;;4.90;99.90;;;;;;5055169;28;20040;-71
2022/01/15 10:45:48;;;;;;;61.28;20.13;;;4.80;99.90;;;;;;5055181;28;20106;-72
2022/01/15 10:48:31;;;;;;;56.65;18.08;;;4.90;99.90;;;;;;5054992;28;20047;-72
2022/01/15 10:51:02;;;;;;;50.30;16.95;;;4.90;99.90;;;;;;5038519;28;20400;-73
2022/01/15 10:53:39;;;;;;;51.28;18.70;;;4.90;99.90;;;;;;5055244;28;20325;-73
2022/01/15 10:56:07;;;;;;;55.05;19.08;;;4.90;99.90;;;;;;5054707;28;20496;-73
2022/01/15 10:58:33;;;;;;;40.47;14.18;;;4.90;99.90;;;;;;5055159;28;20040;-73
2022/01/15 11:00:59;;;;;;;40.17;16.33;;;4.90;99.90;;;;;;5035827;28;20045;-73
2022/01/15 11:03:37;;;;;;;25.63;11.48;;;4.90;99.90;;;;;;5054752;28;20040;-73
2022/01/15 11:06:05;;;;;;;26.73;13.23;;;4.90;99.90;;;;;;5038375;28;20295;-74
2022/01/15 11:08:35;;;;;;;18.75;9.40;;;4.90;99.90;;;;;;5054677;28;20483;-73
2022/01/15 11:11:08;;;;;;;24.08;11.90;;;4.90;99.90;;;;;;5054708;28;20048;-72
2022/01/15 11:13:37;;;;;;;17.95;8.32;;;4.80;99.90;;;;;;5054477;28;20123;-73
2022/01/15 11:16:07;;;;;;;18.05;9.18;;;4.90;99.90;;;;;;5054003;28;20086;-72
2022/01/15 11:18:38;;;;;;;15.25;8.10;;;4.90;99.90;;;;;;5053665;28;20044;-74
2022/01/15 11:21:07;;;;;;;10.68;6.03;;;4.90;99.90;;;;;;5074000;28;20048;-74
2022/01/15 11:23:39;;;;;;;20.33;10.90;;;4.90;99.90;;;;;;5058332;28;20047;-73
2022/01/15 11:26:16;;;;;;;22.23;11.05;;;4.80;99.90;;;;;;5092494;28;20039;-73
2022/01/15 11:28:43;;;;;;;22.75;11.40;;;4.80;99.90;;;;;;5044373;28;20119;-73
2022/01/15 11:31:11;;;;;;;24.30;11.80;;;4.80;99.90;;;;;;5047081;28;20365;-74
2022/01/15 11:33:49;;;;;;;23.95;11.20;;;4.80;99.90;;;;;;5055481;28;20044;-73
2022/01/15 11:36:38;;;;;;;25.63;11.90;;;4.80;99.90;;;;;;5038299;28;20131;-74
2022/01/15 11:39:07;;;;;;;28.53;12.37;;;4.80;99.90;;;;;;5037716;28;20503;-73
2022/01/15 11:41:33;;;;;;;22.85;10.45;;;4.80;99.90;;;;;;5037435;28;20364;-74
2022/01/15 11:44:00;;;;;;;17.15;8.88;;;4.80;99.90;;;;;;5053948;28;20044;-74
2022/01/15 11:46:33;;;;;;;21.80;11.63;;;4.80;99.90;;;;;;5037634;28;20032;-74
2022/01/15 11:49:27;;;;;;;20.60;11.23;;;4.80;99.90;;;;;;5053961;28;20040;-74
2022/01/15 11:52:14;;;;;;;20.42;10.70;;;4.80;99.90;;;;;;5037622;28;20094;-74
2022/01/15 11:54:49;;;;;;;22.50;11.27;;;4.70;99.90;;;;;;5052793;28;20044;-74
2022/01/15 11:57:44;;;;;;;26.73;13.07;;;4.70;99.90;;;;;;5054068;28;20063;-74
2022/01/15 12:00:26;;;;;;;28.42;13.60;;;4.70;99.90;;;;;;5026307;28;20084;-73
2022/01/15 12:03:12;;;;;;;28.60;13.50;;;4.70;99.90;;;;;;5037234;28;20033;-74
2022/01/15 12:05:43;;;;;;;27.27;13.50;;;4.70;99.90;;;;;;5052932;28;20049;-74
2022/01/15 12:08:10;;;;;;;28.52;14.18;;;4.70;99.90;;;;;;5038021;28;20064;-74
2022/01/15 12:10:51;;;;;;;36.17;14.88;;;4.70;99.90;;;;;;5054942;28;20055;-75
2022/01/15 12:13:23;;;;;;;40.55;15.70;;;4.70;99.90;;;;;;5012882;28;20040;-74
2022/01/15 12:16:10;;;;;;;41.25;17.15;;;4.70;99.90;;;;;;5034856;28;20067;-74
2022/01/15 12:18:47;;;;;;;41.33;18.75;;;4.70;99.90;;;;;;5008083;28;20049;-75
2022/01/15 12:21:44;;;;;;;45.13;19.30;;;4.80;99.90;;;;;;5018345;28;20037;-74
2022/01/15 12:24:33;;;;;;;34.72;14.98;;;4.80;99.90;;;;;;5018427;28;20623;-75
2022/01/15 12:27:03;;;;;;;37.50;15.70;;;4.80;99.90;;;;;;5034334;28;20041;-74
2022/01/15 12:29:29;;;;;;;35.42;16.15;;;4.80;99.90;;;;;;5032096;28;20037;-74
2022/01/15 12:31:55;;;;;;;36.85;16.42;;;4.80;99.90;;;;;;5036289;28;20049;-74
2022/01/15 12:34:25;;;;;;;41.05;16.67;;;4.80;99.90;;;;;;5041872;28;20062;-74
2022/01/15 12:36:51;;;;;;;39.28;19.10;;;4.80;99.90;;;;;;5058336;28;20044;-74
2022/01/15 12:39:33;;;;;;;46.25;18.40;;;4.80;99.90;;;;;;5038737;28;20037;-74
2022/01/15 12:41:58;;;;;;;46.03;18.98;;;4.80;99.90;;;;;;5057175;28;20404;-74
2022/01/15 12:44:24;;;;;;;34.72;14.70;;;4.80;99.90;;;;;;5057260;28;20036;-74
2022/01/15 12:46:58;;;;;;;37.90;16.55;;;4.90;99.90;;;;;;5040894;28;20044;-74
2022/01/15 12:49:38;;;;;;;39.13;17.00;;;4.90;99.90;;;;;;5040868;28;20419;-75
2022/01/15 12:52:10;;;;;;;40.53;17.75;;;4.90;99.90;;;;;;5057159;28;20044;-74
2022/01/15 12:54:36;;;;;;;36.88;14.32;;;4.80;99.90;;;;;;5040404;28;20049;-74
2022/01/15 12:57:02;;;;;;;37.63;16.30;;;4.80;99.90;;;;;;5042662;28;20242;-74
2022/01/15 12:59:28;;;;;;;45.30;18.45;;;4.80;99.90;;;;;;5040612;28;20094;-74
2022/01/15 13:01:54;;;;;;;36.17;15.43;;;4.80;99.90;;;;;;5038025;28;20525;-74
2022/01/15 13:04:20;;;;;;;29.98;12.75;;;4.80;99.90;;;;;;5056852;28;20481;-74
2022/01/15 13:06:50;;;;;;;42.35;17.80;;;4.80;99.90;;;;;;5040551;28;20389;-73
2022/01/15 13:09:16;;;;;;;37.30;16.05;;;4.80;99.90;;;;;;5040018;28;20476;-73
2022/01/15 13:11:48;;;;;;;40.70;14.80;;;4.80;99.90;;;;;;5057200;28;20044;-74
2022/01/15 13:14:14;;;;;;;57.20;15.05;;;4.80;99.90;;;;;;5040450;28;20467;-74
2022/01/15 13:16:40;;;;;;;79.13;19.00;;;4.80;99.90;;;;;;5040157;28;20051;-74
2022/01/15 13:19:07;;;;;;;49.03;15.40;;;4.80;99.90;;;;;;5056363;28;20056;-74
2022/01/15 13:21:37;;;;;;;56.25;16.77;;;4.70;99.90;;;;;;5056636;28;20498;-74
2022/01/15 13:24:12;;;;;;;71.22;18.38;;;4.60;99.90;;;;;;5056354;28;20043;-74
2022/01/15 13:26:45;;;;;;;70.45;16.92;;;4.60;99.90;;;;;;5040042;28;20080;-73